sensor_id;sensor_type;location;lat;lon;timestamp;temperature;humidity
52791;DHT22;41253;46.856;-71.574;2022-08-19T00:01:44;21.40;99.90
52791;DHT22;41253;46.856;-71.574;2022-08-19T00:04:12;21.40;99.90
52791;DHT22;41253;46.856;-71.574;2022-08-19T00:06:41;21.50;99.90
52791;DHT22;41253;46.856;-71.574;2022-08-19T00:09:10;21.50;99.90
52791;DHT22;41253;46.856;-71.574;2022-08-19T00:11:39;21.60;99.90
52791;DHT22;41253;46.856;-71.574;2022-08-19T00:14:08;21.60;99.90
52791;DHT22;41253;46.856;-71.574;2022-08-19T00:16:38;21.70;99.90
52791;DHT22;41253;46.856;-71.574;2022-08-19T00:19:06;21.80;99.90
52791;DHT22;41253;46.856;-71.574;2022-08-19T00:21:33;21.90;99.90
52791;DHT22;41253;46.856;-71.574;2022-08-19T00:24:05;21.90;99.90
52791;DHT22;41253;46.856;-71.574;2022-08-19T00:26:31;21.90;99.90
52791;DHT22;41253;46.856;-71.574;2022-08-19T00:28:58;22.00;99.90
52791;DHT22;41253;46.856;-71.574;2022-08-19T00:31:25;22.00;99.90
52791;DHT22;41253;46.856;-71.574;2022-08-19T00:33:54;22.00;99.90
52791;DHT22;41253;46.856;-71.574;2022-08-19T00:36:21;22.10;99.90
52791;DHT22;41253;46.856;-71.574;2022-08-19T00:38:47;22.00;99.90
52791;DHT22;41253;46.856;-71.574;2022-08-19T00:41:17;22.10;99.90
52791;DHT22;41253;46.856;-71.574;2022-08-19T00:44:10;22.20;99.90
52791;DHT22;41253;46.856;-71.574;2022-08-19T00:46:41;22.30;99.90
52791;DHT22;41253;46.856;-71.574;2022-08-19T00:49:20;22.30;99.90
52791;DHT22;41253;46.856;-71.574;2022-08-19T00:51:53;22.30;99.90
52791;DHT22;41253;46.856;-71.574;2022-08-19T00:54:21;22.40;99.90
52791;DHT22;41253;46.856;-71.574;2022-08-19T00:56:49;22.40;99.90
52791;DHT22;41253;46.856;-71.574;2022-08-19T00:59:17;22.50;99.90
52791;DHT22;41253;46.856;-71.574;2022-08-19T01:01:44;22.50;99.90
52791;DHT22;41253;46.856;-71.574;2022-08-19T01:04:12;22.50;99.90
52791;DHT22;41253;46.856;-71.574;2022-08-19T01:06:40;22.60;99.90
52791;DHT22;41253;46.856;-71.574;2022-08-19T01:09:09;22.80;99.90
52791;DHT22;41253;46.856;-71.574;2022-08-19T01:11:38;22.90;99.90
52791;DHT22;41253;46.856;-71.574;2022-08-19T01:14:06;23.00;99.90
52791;DHT22;41253;46.856;-71.574;2022-08-19T01:16:34;23.20;99.90
52791;DHT22;41253;46.856;-71.574;2022-08-19T01:19:01;23.30;99.90
52791;DHT22;41253;46.856;-71.574;2022-08-19T01:21:40;23.40;99.90
52791;DHT22;41253;46.856;-71.574;2022-08-19T01:24:08;23.60;99.90
52791;DHT22;41253;46.856;-71.574;2022-08-19T01:26:41;23.70;99.90
52791;DHT22;41253;46.856;-71.574;2022-08-19T01:29:09;23.90;99.90
52791;DHT22;41253;46.856;-71.574;2022-08-19T01:31:36;24.30;99.90
52791;DHT22;41253;46.856;-71.574;2022-08-19T01:34:06;24.40;99.90
52791;DHT22;41253;46.856;-71.574;2022-08-19T01:36:41;24.50;99.90
52791;DHT22;41253;46.856;-71.574;2022-08-19T01:39:12;24.60;99.90
52791;DHT22;41253;46.856;-71.574;2022-08-19T01:41:39;24.80;99.90
52791;DHT22;41253;46.856;-71.574;2022-08-19T01:44:07;25.10;99.90
52791;DHT22;41253;46.856;-71.574;2022-08-19T01:46:34;25.30;99.90
52791;DHT22;41253;46.856;-71.574;2022-08-19T01:49:01;25.50;99.90
52791;DHT22;41253;46.856;-71.574;2022-08-19T01:51:28;25.60;99.90
52791;DHT22;41253;46.856;-71.574;2022-08-19T01:53:56;25.70;99.90
52791;DHT22;41253;46.856;-71.574;2022-08-19T01:56:23;25.80;99.90
52791;DHT22;41253;46.856;-71.574;2022-08-19T01:58:57;25.90;99.90
52791;DHT22;41253;46.856;-71.574;2022-08-19T02:01:24;26.00;99.90
52791;DHT22;41253;46.856;-71.574;2022-08-19T02:03:51;26.10;99.90
52791;DHT22;41253;46.856;-71.574;2022-08-19T02:06:20;26.10;99.90
52791;DHT22;41253;46.856;-71.574;2022-08-19T02:08:46;26.10;99.90
52791;DHT22;41253;46.856;-71.574;2022-08-19T02:11:22;26.20;99.90
52791;DHT22;41253;46.856;-71.574;2022-08-19T02:13:49;26.10;99.90
52791;DHT22;41253;46.856;-71.574;2022-08-19T02:16:17;26.20;99.90
52791;DHT22;41253;46.856;-71.574;2022-08-19T02:18:45;26.10;99.90
52791;DHT22;41253;46.856;-71.574;2022-08-19T02:21:18;26.10;99.90
52791;DHT22;41253;46.856;-71.574;2022-08-19T02:23:46;26.00;99.90
52791;DHT22;41253;46.856;-71.574;2022-08-19T02:26:13;26.00;99.90
52791;DHT22;41253;46.856;-71.574;2022-08-19T02:28:41;26.10;99.90
52791;DHT22;41253;46.856;-71.574;2022-08-19T02:31:13;26.10;99.90
52791;DHT22;41253;46.856;-71.574;2022-08-19T02:33:44;26.20;99.90
52791;DHT22;41253;46.856;-71.574;2022-08-19T02:36:11;26.10;99.90
52791;DHT22;41253;46.856;-71.574;2022-08-19T02:38:38;26.10;99.90
52791;DHT22;41253;46.856;-71.574;2022-08-19T02:41:14;26.00;99.90
52791;DHT22;41253;46.856;-71.574;2022-08-19T02:43:41;26.00;99.90
52791;DHT22;41253;46.856;-71.574;2022-08-19T02:46:22;26.10;99.90
52791;DHT22;41253;46.856;-71.574;2022-08-19T02:48:52;26.10;99.90
52791;DHT22;41253;46.856;-71.574;2022-08-19T02:51:24;26.10;99.90
52791;DHT22;41253;46.856;-71.574;2022-08-19T02:53:52;26.00;99.90
52791;DHT22;41253;46.856;-71.574;2022-08-19T02:56:19;25.90;99.90
52791;DHT22;41253;46.856;-71.574;2022-08-19T02:58:46;25.90;99.90
52791;DHT22;41253;46.856;-71.574;2022-08-19T03:01:28;26.00;99.90
52791;DHT22;41253;46.856;-71.574;2022-08-19T03:03:57;25.90;99.90
52791;DHT22;41253;46.856;-71.574;2022-08-19T03:06:24;25.90;99.90
52791;DHT22;41253;46.856;-71.574;2022-08-19T03:08:51;25.90;99.90
52791;DHT22;41253;46.856;-71.574;2022-08-19T03:11:27;26.00;99.90
52791;DHT22;41253;46.856;-71.574;2022-08-19T03:13:54;25.90;99.90
52791;DHT22;41253;46.856;-71.574;2022-08-19T03:16:24;26.00;99.90
52791;DHT22;41253;46.856;-71.574;2022-08-19T03:18:50;25.90;99.90
52791;DHT22;41253;46.856;-71.574;2022-08-19T03:21:24;25.90;99.90
52791;DHT22;41253;46.856;-71.574;2022-08-19T03:23:55;25.90;99.90
52791;DHT22;41253;46.856;-71.574;2022-08-19T03:26:22;25.90;99.90
52791;DHT22;41253;46.856;-71.574;2022-08-19T03:28:49;25.80;99.90
52791;DHT22;41253;46.856;-71.574;2022-08-19T03:31:18;25.80;99.90
52791;DHT22;41253;46.856;-71.574;2022-08-19T03:33:45;25.80;99.90
52791;DHT22;41253;46.856;-71.574;2022-08-19T03:36:18;25.80;99.90
52791;DHT22;41253;46.856;-71.574;2022-08-19T03:38:50;25.80;99.90
52791;DHT22;41253;46.856;-71.574;2022-08-19T03:41:23;25.60;99.90
52791;DHT22;41253;46.856;-71.574;2022-08-19T03:43:50;25.50;99.90
52791;DHT22;41253;46.856;-71.574;2022-08-19T03:46:18;25.70;99.90
52791;DHT22;41253;46.856;-71.574;2022-08-19T03:48:47;25.60;99.90
52791;DHT22;41253;46.856;-71.574;2022-08-19T03:51:23;25.60;99.90
52791;DHT22;41253;46.856;-71.574;2022-08-19T03:53:51;25.60;99.90
52791;DHT22;41253;46.856;-71.574;2022-08-19T03:56:19;25.60;99.90
52791;DHT22;41253;46.856;-71.574;2022-08-19T03:58:46;25.70;99.90
52791;DHT22;41253;46.856;-71.574;2022-08-19T04:01:16;25.50;99.90
52791;DHT22;41253;46.856;-71.574;2022-08-19T04:03:44;25.60;99.90
52791;DHT22;41253;46.856;-71.574;2022-08-19T04:06:14;25.50;99.90
52791;DHT22;41253;46.856;-71.574;2022-08-19T04:08:42;25.60;99.90
52791;DHT22;41253;46.856;-71.574;2022-08-19T04:11:11;25.60;99.90
52791;DHT22;41253;46.856;-71.574;2022-08-19T04:13:38;25.50;99.90
52791;DHT22;41253;46.856;-71.574;2022-08-19T04:16:05;25.50;99.90
52791;DHT22;41253;46.856;-71.574;2022-08-19T04:18:33;25.50;99.90
52791;DHT22;41253;46.856;-71.574;2022-08-19T04:20:59;25.50;99.90
52791;DHT22;41253;46.856;-71.574;2022-08-19T04:23:26;25.50;99.90
52791;DHT22;41253;46.856;-71.574;2022-08-19T04:25:54;25.40;99.90
52791;DHT22;41253;46.856;-71.574;2022-08-19T04:28:22;25.40;99.90
52791;DHT22;41253;46.856;-71.574;2022-08-19T04:30:51;25.40;99.90
52791;DHT22;41253;46.856;-71.574;2022-08-19T04:33:21;25.40;99.90
52791;DHT22;41253;46.856;-71.574;2022-08-19T04:35:50;25.40;99.90
52791;DHT22;41253;46.856;-71.574;2022-08-19T04:38:20;25.40;99.90
52791;DHT22;41253;46.856;-71.574;2022-08-19T04:40:49;25.40;99.90
52791;DHT22;41253;46.856;-71.574;2022-08-19T04:43:36;25.40;99.90
52791;DHT22;41253;46.856;-71.574;2022-08-19T04:46:11;25.30;99.90
52791;DHT22;41253;46.856;-71.574;2022-08-19T04:48:39;25.30;99.90
52791;DHT22;41253;46.856;-71.574;2022-08-19T04:51:08;25.30;99.90
52791;DHT22;41253;46.856;-71.574;2022-08-19T04:53:37;25.40;99.90
52791;DHT22;41253;46.856;-71.574;2022-08-19T04:56:15;25.40;99.90
52791;DHT22;41253;46.856;-71.574;2022-08-19T04:58:44;25.30;99.90
52791;DHT22;41253;46.856;-71.574;2022-08-19T05:01:17;25.40;99.90
52791;DHT22;41253;46.856;-71.574;2022-08-19T05:03:44;25.40;99.90
52791;DHT22;41253;46.856;-71.574;2022-08-19T05:06:13;25.30;99.90
52791;DHT22;41253;46.856;-71.574;2022-08-19T05:08:41;25.40;99.90
52791;DHT22;41253;46.856;-71.574;2022-08-19T05:11:21;25.30;99.90
52791;DHT22;41253;46.856;-71.574;2022-08-19T05:13:48;25.30;99.90
52791;DHT22;41253;46.856;-71.574;2022-08-19T05:16:20;25.30;99.90
52791;DHT22;41253;46.856;-71.574;2022-08-19T05:18:47;25.30;99.90
52791;DHT22;41253;46.856;-71.574;2022-08-19T05:21:32;25.40;99.90
52791;DHT22;41253;46.856;-71.574;2022-08-19T05:24:18;25.40;99.90
52791;DHT22;41253;46.856;-71.574;2022-08-19T05:26:46;25.40;99.90
52791;DHT22;41253;46.856;-71.574;2022-08-19T05:29:18;25.40;99.90
52791;DHT22;41253;46.856;-71.574;2022-08-19T05:31:46;25.40;99.90
52791;DHT22;41253;46.856;-71.574;2022-08-19T05:34:16;25.30;99.90
52791;DHT22;41253;46.856;-71.574;2022-08-19T05:36:44;25.30;99.90
52791;DHT22;41253;46.856;-71.574;2022-08-19T05:39:16;25.40;99.90
52791;DHT22;41253;46.856;-71.574;2022-08-19T05:41:48;25.40;99.90
52791;DHT22;41253;46.856;-71.574;2022-08-19T05:44:16;25.40;99.90
52791;DHT22;41253;46.856;-71.574;2022-08-19T05:46:46;25.40;99.90
52791;DHT22;41253;46.856;-71.574;2022-08-19T05:49:19;25.40;99.90
52791;DHT22;41253;46.856;-71.574;2022-08-19T05:51:47;25.30;99.90
52791;DHT22;41253;46.856;-71.574;2022-08-19T05:54:13;25.40;99.90
52791;DHT22;41253;46.856;-71.574;2022-08-19T05:56:41;25.30;99.90
52791;DHT22;41253;46.856;-71.574;2022-08-19T05:59:10;25.40;99.90
52791;DHT22;41253;46.856;-71.574;2022-08-19T06:01:38;25.30;99.90
52791;DHT22;41253;46.856;-71.574;2022-08-19T06:04:05;25.30;99.90
52791;DHT22;41253;46.856;-71.574;2022-08-19T06:06:33;25.30;99.90
52791;DHT22;41253;46.856;-71.574;2022-08-19T06:09:04;25.30;99.90
52791;DHT22;41253;46.856;-71.574;2022-08-19T06:11:40;25.20;99.90
52791;DHT22;41253;46.856;-71.574;2022-08-19T06:14:12;25.20;99.90
52791;DHT22;41253;46.856;-71.574;2022-08-19T06:16:41;25.20;99.90
52791;DHT22;41253;46.856;-71.574;2022-08-19T06:19:14;25.10;99.90
52791;DHT22;41253;46.856;-71.574;2022-08-19T06:21:44;25.10;99.90
52791;DHT22;41253;46.856;-71.574;2022-08-19T06:24:13;25.20;99.90
52791;DHT22;41253;46.856;-71.574;2022-08-19T06:26:41;25.20;99.90
52791;DHT22;41253;46.856;-71.574;2022-08-19T06:29:11;25.20;99.90
52791;DHT22;41253;46.856;-71.574;2022-08-19T06:31:44;25.30;99.90
52791;DHT22;41253;46.856;-71.574;2022-08-19T06:34:11;25.20;99.90
52791;DHT22;41253;46.856;-71.574;2022-08-19T06:36:41;25.10;99.90
52791;DHT22;41253;46.856;-71.574;2022-08-19T06:39:31;25.10;99.90
52791;DHT22;41253;46.856;-71.574;2022-08-19T06:42:01;25.20;99.90
52791;DHT22;41253;46.856;-71.574;2022-08-19T06:44:30;25.20;99.90
52791;DHT22;41253;46.856;-71.574;2022-08-19T06:47:02;25.20;99.90
52791;DHT22;41253;46.856;-71.574;2022-08-19T06:49:29;25.20;99.90
52791;DHT22;41253;46.856;-71.574;2022-08-19T06:51:57;25.10;99.90
52791;DHT22;41253;46.856;-71.574;2022-08-19T06:54:25;25.20;99.90
52791;DHT22;41253;46.856;-71.574;2022-08-19T06:56:52;25.20;99.90
52791;DHT22;41253;46.856;-71.574;2022-08-19T06:59:20;25.30;99.90
52791;DHT22;41253;46.856;-71.574;2022-08-19T07:01:53;25.20;99.90
52791;DHT22;41253;46.856;-71.574;2022-08-19T07:04:26;25.30;99.90
52791;DHT22;41253;46.856;-71.574;2022-08-19T07:07:02;25.30;99.90
52791;DHT22;41253;46.856;-71.574;2022-08-19T07:09:29;25.40;99.90
52791;DHT22;41253;46.856;-71.574;2022-08-19T07:11:56;25.40;99.90
52791;DHT22;41253;46.856;-71.574;2022-08-19T07:14:25;25.30;99.90
52791;DHT22;41253;46.856;-71.574;2022-08-19T07:16:54;25.30;99.90
52791;DHT22;41253;46.856;-71.574;2022-08-19T07:19:24;25.30;99.90
52791;DHT22;41253;46.856;-71.574;2022-08-19T07:21:53;25.30;99.90
52791;DHT22;41253;46.856;-71.574;2022-08-19T07:24:22;25.20;99.90
52791;DHT22;41253;46.856;-71.574;2022-08-19T07:26:50;25.20;99.90
52791;DHT22;41253;46.856;-71.574;2022-08-19T07:29:17;25.20;99.90
52791;DHT22;41253;46.856;-71.574;2022-08-19T07:31:44;25.20;99.90
52791;DHT22;41253;46.856;-71.574;2022-08-19T07:34:11;25.20;99.90
52791;DHT22;41253;46.856;-71.574;2022-08-19T07:36:41;25.20;99.90
52791;DHT22;41253;46.856;-71.574;2022-08-19T07:39:12;25.20;99.90
52791;DHT22;41253;46.856;-71.574;2022-08-19T07:41:39;25.20;99.90
52791;DHT22;41253;46.856;-71.574;2022-08-19T07:44:06;25.20;99.90
52791;DHT22;41253;46.856;-71.574;2022-08-19T07:46:37;25.10;99.90
52791;DHT22;41253;46.856;-71.574;2022-08-19T07:49:06;25.00;99.90
52791;DHT22;41253;46.856;-71.574;2022-08-19T07:51:32;25.10;99.90
52791;DHT22;41253;46.856;-71.574;2022-08-19T07:53:59;25.00;99.90
52791;DHT22;41253;46.856;-71.574;2022-08-19T07:56:26;25.00;99.90
52791;DHT22;41253;46.856;-71.574;2022-08-19T07:58:52;25.00;99.90
52791;DHT22;41253;46.856;-71.574;2022-08-19T08:01:23;25.00;99.90
52791;DHT22;41253;46.856;-71.574;2022-08-19T08:03:51;25.00;99.90
52791;DHT22;41253;46.856;-71.574;2022-08-19T08:06:37;25.00;99.90
52791;DHT22;41253;46.856;-71.574;2022-08-19T08:09:38;25.00;99.90
52791;DHT22;41253;46.856;-71.574;2022-08-19T08:12:09;25.00;99.90
52791;DHT22;41253;46.856;-71.574;2022-08-19T08:17:11;25.00;99.90
52791;DHT22;41253;46.856;-71.574;2022-08-19T08:19:38;25.00;99.90
52791;DHT22;41253;46.856;-71.574;2022-08-19T08:22:08;25.00;99.90
52791;DHT22;41253;46.856;-71.574;2022-08-19T08:24:55;24.90;99.90
52791;DHT22;41253;46.856;-71.574;2022-08-19T08:27:24;24.90;99.90
52791;DHT22;41253;46.856;-71.574;2022-08-19T08:29:50;24.80;99.90
52791;DHT22;41253;46.856;-71.574;2022-08-19T08:32:17;24.80;99.90
52791;DHT22;41253;46.856;-71.574;2022-08-19T08:34:43;24.80;99.90
52791;DHT22;41253;46.856;-71.574;2022-08-19T08:37:09;24.70;99.90
52791;DHT22;41253;46.856;-71.574;2022-08-19T08:39:36;24.70;99.90
52791;DHT22;41253;46.856;-71.574;2022-08-19T08:42:36;24.70;99.90
52791;DHT22;41253;46.856;-71.574;2022-08-19T08:45:13;24.70;99.90
52791;DHT22;41253;46.856;-71.574;2022-08-19T08:47:44;24.60;99.90
52791;DHT22;41253;46.856;-71.574;2022-08-19T08:50:25;24.50;99.90
52791;DHT22;41253;46.856;-71.574;2022-08-19T08:52:55;24.50;99.90
52791;DHT22;41253;46.856;-71.574;2022-08-19T08:55:28;24.50;99.90
52791;DHT22;41253;46.856;-71.574;2022-08-19T09:00:39;24.40;99.90
52791;DHT22;41253;46.856;-71.574;2022-08-19T09:03:13;24.40;99.90
52791;DHT22;41253;46.856;-71.574;2022-08-19T09:06:14;24.30;99.90
52791;DHT22;41253;46.856;-71.574;2022-08-19T09:09:03;24.20;99.90
52791;DHT22;41253;46.856;-71.574;2022-08-19T09:15:00;24.20;99.90
52791;DHT22;41253;46.856;-71.574;2022-08-19T09:17:29;24.10;99.90
52791;DHT22;41253;46.856;-71.574;2022-08-19T09:20:13;24.10;99.90
52791;DHT22;41253;46.856;-71.574;2022-08-19T09:22:41;24.10;99.90
52791;DHT22;41253;46.856;-71.574;2022-08-19T09:25:12;24.10;99.90
52791;DHT22;41253;46.856;-71.574;2022-08-19T09:27:41;24.90;99.90
52791;DHT22;41253;46.856;-71.574;2022-08-19T09:30:14;24.70;99.90
52791;DHT22;41253;46.856;-71.574;2022-08-19T09:32:43;24.60;99.90
52791;DHT22;41253;46.856;-71.574;2022-08-19T09:35:12;24.50;99.90
52791;DHT22;41253;46.856;-71.574;2022-08-19T09:37:39;24.50;99.90
52791;DHT22;41253;46.856;-71.574;2022-08-19T09:40:06;24.50;99.90
52791;DHT22;41253;46.856;-71.574;2022-08-19T09:42:33;24.50;99.90
52791;DHT22;41253;46.856;-71.574;2022-08-19T09:45:00;24.70;99.90
52791;DHT22;41253;46.856;-71.574;2022-08-19T09:47:26;24.60;99.90
52791;DHT22;41253;46.856;-71.574;2022-08-19T09:49:52;24.50;99.90
52791;DHT22;41253;46.856;-71.574;2022-08-19T09:52:19;24.50;99.90
52791;DHT22;41253;46.856;-71.574;2022-08-19T09:54:45;24.50;99.90
52791;DHT22;41253;46.856;-71.574;2022-08-19T09:57:12;24.50;99.90
52791;DHT22;41253;46.856;-71.574;2022-08-19T09:59:39;24.50;99.90
52791;DHT22;41253;46.856;-71.574;2022-08-19T10:02:06;24.50;99.90
52791;DHT22;41253;46.856;-71.574;2022-08-19T10:04:32;24.50;99.90
52791;DHT22;41253;46.856;-71.574;2022-08-19T10:07:17;24.60;99.90
52791;DHT22;41253;46.856;-71.574;2022-08-19T10:09:43;24.60;99.90
52791;DHT22;41253;46.856;-71.574;2022-08-19T10:12:10;24.60;99.90
52791;DHT22;41253;46.856;-71.574;2022-08-19T10:14:36;24.70;99.90
52791;DHT22;41253;46.856;-71.574;2022-08-19T10:17:03;24.70;99.90
52791;DHT22;41253;46.856;-71.574;2022-08-19T10:19:29;24.70;99.90
52791;DHT22;41253;46.856;-71.574;2022-08-19T10:22:06;24.70;99.90
52791;DHT22;41253;46.856;-71.574;2022-08-19T10:24:34;24.70;99.90
52791;DHT22;41253;46.856;-71.574;2022-08-19T10:27:01;24.70;99.90
52791;DHT22;41253;46.856;-71.574;2022-08-19T10:29:32;24.70;99.90
52791;DHT22;41253;46.856;-71.574;2022-08-19T10:32:02;24.80;99.90
52791;DHT22;41253;46.856;-71.574;2022-08-19T10:34:29;24.90;99.90
52791;DHT22;41253;46.856;-71.574;2022-08-19T10:36:57;24.90;99.90
52791;DHT22;41253;46.856;-71.574;2022-08-19T10:39:24;25.00;99.90
52791;DHT22;41253;46.856;-71.574;2022-08-19T10:41:50;25.00;99.90
52791;DHT22;41253;46.856;-71.574;2022-08-19T10:44:16;25.10;99.90
52791;DHT22;41253;46.856;-71.574;2022-08-19T10:46:44;25.10;99.90
52791;DHT22;41253;46.856;-71.574;2022-08-19T10:49:14;25.10;99.90
52791;DHT22;41253;46.856;-71.574;2022-08-19T10:51:41;25.30;99.90
52791;DHT22;41253;46.856;-71.574;2022-08-19T10:54:27;25.30;99.90
52791;DHT22;41253;46.856;-71.574;2022-08-19T10:57:14;25.30;99.90
52791;DHT22;41253;46.856;-71.574;2022-08-19T10:59:41;25.30;99.90
52791;DHT22;41253;46.856;-71.574;2022-08-19T11:02:09;25.20;99.90
52791;DHT22;41253;46.856;-71.574;2022-08-19T11:04:37;25.10;99.90
52791;DHT22;41253;46.856;-71.574;2022-08-19T11:07:05;25.10;99.90
52791;DHT22;41253;46.856;-71.574;2022-08-19T11:09:37;25.10;99.90
52791;DHT22;41253;46.856;-71.574;2022-08-19T11:12:05;25.10;99.90
52791;DHT22;41253;46.856;-71.574;2022-08-19T11:14:32;25.20;99.90
52791;DHT22;41253;46.856;-71.574;2022-08-19T11:16:59;25.30;99.90
52791;DHT22;41253;46.856;-71.574;2022-08-19T11:19:26;25.20;99.90
52791;DHT22;41253;46.856;-71.574;2022-08-19T11:21:53;25.40;99.90
52791;DHT22;41253;46.856;-71.574;2022-08-19T11:24:22;25.50;99.90
52791;DHT22;41253;46.856;-71.574;2022-08-19T11:26:52;25.70;99.90
52791;DHT22;41253;46.856;-71.574;2022-08-19T11:29:20;25.80;99.90
52791;DHT22;41253;46.856;-71.574;2022-08-19T11:31:48;25.80;99.90
52791;DHT22;41253;46.856;-71.574;2022-08-19T11:34:20;25.90;99.90
52791;DHT22;41253;46.856;-71.574;2022-08-19T11:36:48;26.00;99.90
52791;DHT22;41253;46.856;-71.574;2022-08-19T11:39:16;26.00;99.90
52791;DHT22;41253;46.856;-71.574;2022-08-19T11:41:43;25.90;99.90
52791;DHT22;41253;46.856;-71.574;2022-08-19T11:44:10;25.90;99.90
52791;DHT22;41253;46.856;-71.574;2022-08-19T11:46:37;26.20;99.90
52791;DHT22;41253;46.856;-71.574;2022-08-19T11:49:05;26.30;99.90
52791;DHT22;41253;46.856;-71.574;2022-08-19T11:51:33;26.40;99.90
52791;DHT22;41253;46.856;-71.574;2022-08-19T11:54:00;26.50;99.90
52791;DHT22;41253;46.856;-71.574;2022-08-19T11:56:27;26.60;99.90
52791;DHT22;41253;46.856;-71.574;2022-08-19T11:58:54;27.00;99.90
52791;DHT22;41253;46.856;-71.574;2022-08-19T12:01:24;27.10;99.90
52791;DHT22;41253;46.856;-71.574;2022-08-19T12:03:54;27.40;99.90
52791;DHT22;41253;46.856;-71.574;2022-08-19T12:06:30;27.60;99.90
52791;DHT22;41253;46.856;-71.574;2022-08-19T12:09:05;27.90;99.90
52791;DHT22;41253;46.856;-71.574;2022-08-19T12:11:33;28.20;99.90
52791;DHT22;41253;46.856;-71.574;2022-08-19T12:14:00;28.10;99.90
52791;DHT22;41253;46.856;-71.574;2022-08-19T12:16:28;28.40;99.90
52791;DHT22;41253;46.856;-71.574;2022-08-19T12:18:55;28.40;99.90
52791;DHT22;41253;46.856;-71.574;2022-08-19T12:21:26;28.40;99.90
52791;DHT22;41253;46.856;-71.574;2022-08-19T12:23:57;28.50;99.90
52791;DHT22;41253;46.856;-71.574;2022-08-19T12:26:26;28.50;99.90
52791;DHT22;41253;46.856;-71.574;2022-08-19T12:28:54;28.60;99.90
52791;DHT22;41253;46.856;-71.574;2022-08-19T12:31:20;29.00;99.90
52791;DHT22;41253;46.856;-71.574;2022-08-19T12:33:47;28.90;99.90
52791;DHT22;41253;46.856;-71.574;2022-08-19T12:36:16;25.60;99.90
52791;DHT22;41253;46.856;-71.574;2022-08-19T12:38:44;25.40;99.90
52791;DHT22;41253;46.856;-71.574;2022-08-19T12:41:13;25.60;99.90
52791;DHT22;41253;46.856;-71.574;2022-08-19T12:43:39;25.50;99.90
52791;DHT22;41253;46.856;-71.574;2022-08-19T12:46:08;25.40;99.90
52791;DHT22;41253;46.856;-71.574;2022-08-19T12:48:35;25.10;99.90
52791;DHT22;41253;46.856;-71.574;2022-08-19T12:51:10;24.60;99.90
52791;DHT22;41253;46.856;-71.574;2022-08-19T12:53:37;24.20;99.90
52791;DHT22;41253;46.856;-71.574;2022-08-19T12:56:03;24.00;99.90
52791;DHT22;41253;46.856;-71.574;2022-08-19T12:58:31;23.60;99.90
52791;DHT22;41253;46.856;-71.574;2022-08-19T13:01:06;23.30;99.90
52791;DHT22;41253;46.856;-71.574;2022-08-19T13:03:33;23.30;99.90
52791;DHT22;41253;46.856;-71.574;2022-08-19T13:05:59;23.30;99.90
52791;DHT22;41253;46.856;-71.574;2022-08-19T13:08:26;23.20;99.90
52791;DHT22;41253;46.856;-71.574;2022-08-19T13:10:52;23.00;99.90
52791;DHT22;41253;46.856;-71.574;2022-08-19T13:13:19;23.10;99.90
52791;DHT22;41253;46.856;-71.574;2022-08-19T13:15:46;23.20;99.90
52791;DHT22;41253;46.856;-71.574;2022-08-19T13:18:13;23.10;99.90
52791;DHT22;41253;46.856;-71.574;2022-08-19T13:20:40;22.90;99.90
52791;DHT22;41253;46.856;-71.574;2022-08-19T13:23:08;22.70;99.90
52791;DHT22;41253;46.856;-71.574;2022-08-19T13:25:36;22.70;99.90
52791;DHT22;41253;46.856;-71.574;2022-08-19T13:28:03;22.40;99.90
52791;DHT22;41253;46.856;-71.574;2022-08-19T13:30:32;22.50;99.90
52791;DHT22;41253;46.856;-71.574;2022-08-19T13:33:17;22.60;99.90
52791;DHT22;41253;46.856;-71.574;2022-08-19T13:35:53;22.30;99.90
52791;DHT22;41253;46.856;-71.574;2022-08-19T13:38:23;21.70;99.90
52791;DHT22;41253;46.856;-71.574;2022-08-19T13:40:51;21.70;99.90
52791;DHT22;41253;46.856;-71.574;2022-08-19T13:43:20;21.60;99.90
52791;DHT22;41253;46.856;-71.574;2022-08-19T13:45:49;21.60;99.90
52791;DHT22;41253;46.856;-71.574;2022-08-19T13:48:15;21.80;99.90
52791;DHT22;41253;46.856;-71.574;2022-08-19T13:50:44;21.90;99.90
52791;DHT22;41253;46.856;-71.574;2022-08-19T13:53:12;21.90;99.90
52791;DHT22;41253;46.856;-71.574;2022-08-19T13:55:40;21.70;99.90
52791;DHT22;41253;46.856;-71.574;2022-08-19T13:58:09;21.60;99.90
52791;DHT22;41253;46.856;-71.574;2022-08-19T14:00:39;21.70;99.90
52791;DHT22;41253;46.856;-71.574;2022-08-19T14:03:07;21.50;99.90
52791;DHT22;41253;46.856;-71.574;2022-08-19T14:05:34;21.90;99.90
52791;DHT22;41253;46.856;-71.574;2022-08-19T14:08:00;22.00;99.90
52791;DHT22;41253;46.856;-71.574;2022-08-19T14:10:28;22.10;99.90
52791;DHT22;41253;46.856;-71.574;2022-08-19T14:12:58;22.30;99.90
52791;DHT22;41253;46.856;-71.574;2022-08-19T14:15:25;22.40;99.90
52791;DHT22;41253;46.856;-71.574;2022-08-19T14:17:52;22.60;99.90
52791;DHT22;41253;46.856;-71.574;2022-08-19T14:20:18;22.50;99.90
52791;DHT22;41253;46.856;-71.574;2022-08-19T14:22:46;22.40;99.90
52791;DHT22;41253;46.856;-71.574;2022-08-19T14:25:17;22.50;99.90
52791;DHT22;41253;46.856;-71.574;2022-08-19T14:27:45;22.50;99.90
52791;DHT22;41253;46.856;-71.574;2022-08-19T14:30:14;22.30;99.90
52791;DHT22;41253;46.856;-71.574;2022-08-19T14:32:41;22.40;99.90
52791;DHT22;41253;46.856;-71.574;2022-08-19T14:35:09;22.60;99.90
52791;DHT22;41253;46.856;-71.574;2022-08-19T14:37:39;22.70;99.90
52791;DHT22;41253;46.856;-71.574;2022-08-19T14:40:07;22.50;99.90
52791;DHT22;41253;46.856;-71.574;2022-08-19T14:42:34;22.70;99.90
52791;DHT22;41253;46.856;-71.574;2022-08-19T14:45:00;22.70;99.90
52791;DHT22;41253;46.856;-71.574;2022-08-19T14:47:26;23.00;99.90
52791;DHT22;41253;46.856;-71.574;2022-08-19T14:49:53;23.30;99.90
52791;DHT22;41253;46.856;-71.574;2022-08-19T14:52:20;23.00;99.90
52791;DHT22;41253;46.856;-71.574;2022-08-19T14:54:47;23.50;99.90
52791;DHT22;41253;46.856;-71.574;2022-08-19T14:57:14;23.30;99.90
52791;DHT22;41253;46.856;-71.574;2022-08-19T14:59:42;23.40;99.90
52791;DHT22;41253;46.856;-71.574;2022-08-19T15:02:09;23.40;99.90
52791;DHT22;41253;46.856;-71.574;2022-08-19T15:04:36;23.60;99.90
52791;DHT22;41253;46.856;-71.574;2022-08-19T15:07:03;22.90;99.90
52791;DHT22;41253;46.856;-71.574;2022-08-19T15:09:31;22.90;99.90
52791;DHT22;41253;46.856;-71.574;2022-08-19T15:11:58;23.00;99.90
52791;DHT22;41253;46.856;-71.574;2022-08-19T15:14:26;23.10;99.90
52791;DHT22;41253;46.856;-71.574;2022-08-19T15:16:53;23.30;99.90
52791;DHT22;41253;46.856;-71.574;2022-08-19T15:19:20;23.70;99.90
52791;DHT22;41253;46.856;-71.574;2022-08-19T15:21:46;23.80;99.90
52791;DHT22;41253;46.856;-71.574;2022-08-19T15:24:12;23.90;99.90
52791;DHT22;41253;46.856;-71.574;2022-08-19T15:26:38;24.40;99.90